Time;durP1;ratioP1;P1;durP2;ratioP2;P2;SDS_P1;SDS_P2;PMS_P1;PMS_P2;Temp;Humidity;BMP_temperature;BMP_pressure;BME280_temperature;BME280_humidity;BME280_pressure;Samples;Min_cycle;Max_cycle;Signal;HPM_P1;HPM_P2
2022/06/20 00:00:37;;;;;;;1.90;1.80;;;17.40;99.90;;;;;;5075204;28;20416;-71
2022/06/20 00:03:04;;;;;;;2.30;2.10;;;17.40;99.90;;;;;;5093573;28;20402;-71
2022/06/20 00:05:33;;;;;;;2.43;1.80;;;17.40;99.90;;;;;;5093307;28;20414;-71
2022/06/20 00:07:58;;;;;;;1.37;1.13;;;17.40;99.90;;;;;;5092022;28;20504;-71
2022/06/20 00:10:26;;;;;;;2.03;1.70;;;17.40;99.90;;;;;;5092043;28;20400;-71
2022/06/20 00:12:53;;;;;;;2.23;2.03;;;17.40;99.90;;;;;;5073197;28;20169;-71
2022/06/20 00:15:28;;;;;;;1.63;1.50;;;17.40;99.90;;;;;;5072917;28;20635;-71
2022/06/20 00:17:55;;;;;;;1.73;1.57;;;17.40;99.90;;;;;;5073083;28;20440;-71
2022/06/20 00:20:21;;;;;;;2.07;1.90;;;17.40;99.90;;;;;;5088343;28;20469;-71
2022/06/20 00:22:47;;;;;;;3.43;2.37;;;17.40;99.90;;;;;;5093123;28;20878;-71
2022/06/20 00:25:13;;;;;;;2.90;2.10;;;17.40;99.90;;;;;;5092913;28;20172;-71
2022/06/20 00:27:39;;;;;;;1.83;1.73;;;17.40;99.90;;;;;;5093048;28;21007;-71
2022/06/20 00:30:05;;;;;;;2.50;1.53;;;17.40;99.90;;;;;;5090753;28;20407;-71
2022/06/20 00:32:31;;;;;;;2.10;1.50;;;17.40;99.90;;;;;;5074598;28;20185;-71
2022/06/20 00:34:57;;;;;;;1.53;1.43;;;17.40;99.90;;;;;;5072394;28;20759;-71
2022/06/20 00:37:22;;;;;;;1.43;1.33;;;17.40;99.90;;;;;;5072589;28;20644;-71
2022/06/20 00:39:49;;;;;;;1.40;1.17;;;17.40;99.90;;;;;;5082710;28;20641;-71
2022/06/20 00:42:16;;;;;;;1.50;1.40;;;17.40;99.90;;;;;;5092910;28;20170;-71
2022/06/20 00:44:45;;;;;;;2.07;1.70;;;17.40;99.90;;;;;;5092521;28;20438;-71
2022/06/20 00:47:31;;;;;;;1.57;1.47;;;17.40;99.90;;;;;;5092673;28;20424;-71
2022/06/20 00:50:03;;;;;;;1.17;1.00;;;17.30;99.90;;;;;;5081291;28;20405;-72
2022/06/20 00:52:36;;;;;;;1.90;1.60;;;17.30;99.90;;;;;;5072577;28;20397;-71
2022/06/20 00:55:18;;;;;;;1.80;1.60;;;17.30;99.90;;;;;;5070737;28;21107;-72
2022/06/20 00:57:49;;;;;;;1.87;1.70;;;17.30;99.90;;;;;;5072348;28;20424;-72
2022/06/20 01:00:19;;;;;;;1.53;1.43;;;17.30;99.90;;;;;;5085234;28;20419;-71
2022/06/20 01:02:48;;;;;;;1.50;1.40;;;17.30;99.90;;;;;;5092582;28;20932;-71
2022/06/20 01:05:20;;;;;;;2.00;1.60;;;17.30;99.90;;;;;;5092213;28;20407;-71
2022/06/20 01:08:11;;;;;;;2.23;2.03;;;17.30;99.90;;;;;;5091067;28;21042;-72
2022/06/20 01:10:51;;;;;;;2.70;2.50;;;17.30;99.90;;;;;;5075995;28;20417;-71
2022/06/20 01:13:20;;;;;;;3.00;2.40;;;17.30;99.90;;;;;;5072207;28;20422;-71
2022/06/20 01:15:47;;;;;;;2.90;2.70;;;17.20;99.90;;;;;;5071942;28;20902;-71
2022/06/20 01:18:17;;;;;;;3.70;2.63;;;17.10;99.90;;;;;;5072203;28;20431;-71
2022/06/20 01:20:44;;;;;;;4.07;3.23;;;17.10;99.90;;;;;;5086338;28;20415;-71
2022/06/20 01:23:33;;;;;;;3.30;3.00;;;17.00;99.90;;;;;;5092045;28;20411;-70
2022/06/20 01:26:08;;;;;;;2.87;2.60;;;17.00;99.90;;;;;;5080940;28;20416;-71
2022/06/20 01:28:40;;;;;;;2.83;2.63;;;16.90;99.90;;;;;;5090880;28;20451;-71
2022/06/20 01:31:08;;;;;;;2.20;2.00;;;16.90;99.90;;;;;;5072252;28;20424;-71
2022/06/20 01:33:33;;;;;;;6.10;2.53;;;16.90;99.90;;;;;;5071796;28;20408;-71
2022/06/20 01:38:45;;;;;;;4.10;2.10;;;16.80;99.90;;;;;;5071835;28;20212;-71
2022/06/20 01:43:58;;;;;;;2.20;1.77;;;16.80;99.90;;;;;;5092250;28;20403;-71
2022/06/20 01:46:27;;;;;;;2.33;2.10;;;16.80;99.90;;;;;;5091715;28;20905;-71
2022/06/20 01:48:56;;;;;;;1.60;1.50;;;16.80;99.90;;;;;;5090870;28;20546;-71
2022/06/20 01:51:25;;;;;;;2.50;2.30;;;16.80;99.90;;;;;;5071804;28;20400;-71
2022/06/20 01:53:53;;;;;;;1.40;1.30;;;16.80;99.90;;;;;;5071592;28;20428;-71
2022/06/20 01:56:21;;;;;;;2.10;1.90;;;16.80;99.90;;;;;;5070028;28;20413;-71
2022/06/20 01:58:53;;;;;;;4.73;1.37;;;16.80;99.90;;;;;;5071707;28;20845;-71
2022/06/20 02:01:19;;;;;;;1.50;1.40;;;16.80;99.90;;;;;;5090750;28;20502;-71
2022/06/20 02:03:47;;;;;;;1.67;1.23;;;16.80;99.90;;;;;;5091832;28;20970;-71
2022/06/20 02:06:15;;;;;;;2.03;1.57;;;16.70;99.90;;;;;;5091418;28;20176;-71
2022/06/20 02:08:43;;;;;;;2.50;1.50;;;16.70;99.90;;;;;;5091796;28;20510;-71
2022/06/20 02:11:11;;;;;;;1.67;1.57;;;16.70;99.90;;;;;;5072236;28;21053;-71
2022/06/20 02:13:42;;;;;;;1.93;1.73;;;16.70;99.90;;;;;;5071636;28;20396;-71
2022/06/20 02:16:11;;;;;;;1.87;1.30;;;16.70;99.90;;;;;;5071321;28;20429;-71
2022/06/20 02:18:40;;;;;;;1.60;1.37;;;16.60;99.90;;;;;;5071535;28;20401;-71
2022/06/20 02:21:12;;;;;;;1.70;1.50;;;16.60;99.90;;;;;;5089834;28;20565;-71
2022/06/20 02:23:44;;;;;;;5.40;2.30;;;16.50;99.90;;;;;;5093156;28;20959;-71
2022/06/20 02:26:11;;;;;;;2.87;2.20;;;16.50;99.90;;;;;;5095052;28;20978;-71
2022/06/20 02:29:05;;;;;;;1.70;1.57;;;16.50;99.90;;;;;;5095447;28;20450;-71
2022/06/20 02:31:30;;;;;;;4.30;2.23;;;16.40;99.90;;;;;;5075098;28;20396;-71
2022/06/20 02:33:56;;;;;;;2.00;1.80;;;16.30;99.90;;;;;;5075092;28;20495;-71
2022/06/20 02:36:23;;;;;;;1.77;1.50;;;16.30;99.90;;;;;;5074685;28;20166;-71
2022/06/20 02:38:49;;;;;;;1.70;1.53;;;16.30;99.90;;;;;;5075051;28;20570;-71
2022/06/20 02:41:21;;;;;;;1.80;1.70;;;16.30;99.90;;;;;;5094174;28;20434;-71
2022/06/20 02:43:57;;;;;;;1.90;1.70;;;16.20;99.90;;;;;;5095183;28;20412;-71
2022/06/20 02:46:25;;;;;;;3.00;2.10;;;16.20;99.90;;;;;;5094836;28;20400;-72
2022/06/20 02:48:53;;;;;;;2.30;1.73;;;16.20;99.90;;;;;;5093660;28;20545;-72
2022/06/20 02:51:28;;;;;;;2.73;2.17;;;16.20;99.90;;;;;;5075103;28;20903;-71
2022/06/20 02:54:03;;;;;;;1.60;1.50;;;16.20;99.90;;;;;;5074612;28;20507;-71
2022/06/20 02:56:34;;;;;;;3.93;2.47;;;16.20;99.90;;;;;;5074422;28;20503;-71
2022/06/20 02:59:05;;;;;;;1.67;1.37;;;16.20;99.90;;;;;;5074611;28;20414;-71
2022/06/20 03:01:41;;;;;;;1.60;1.40;;;16.20;99.90;;;;;;5074624;28;20808;-71
2022/06/20 03:04:08;;;;;;;2.20;2.00;;;16.20;99.90;;;;;;5074492;28;20511;-71
2022/06/20 03:06:49;;;;;;;3.43;2.90;;;16.20;99.90;;;;;;5074254;28;20516;-71
2022/06/20 03:09:18;;;;;;;2.80;2.60;;;16.20;99.90;;;;;;5075970;28;20213;-71
2022/06/20 03:11:44;;;;;;;2.53;2.33;;;16.20;99.90;;;;;;5094750;28;20400;-71
2022/06/20 03:14:16;;;;;;;2.37;2.10;;;16.20;99.90;;;;;;5094508;28;20465;-71
2022/06/20 03:16:41;;;;;;;2.50;2.00;;;16.20;99.90;;;;;;5094557;28;20186;-71
2022/06/20 03:19:22;;;;;;;3.33;2.00;;;16.20;99.90;;;;;;5093625;28;20407;-71
2022/06/20 03:21:48;;;;;;;2.60;1.90;;;16.20;99.90;;;;;;5074236;28;20260;-71
2022/06/20 03:24:17;;;;;;;2.33;2.13;;;16.20;99.90;;;;;;5074028;28;20512;-71
2022/06/20 03:26:43;;;;;;;2.20;2.00;;;16.20;99.90;;;;;;5074045;28;20428;-71
2022/06/20 03:29:15;;;;;;;3.37;2.50;;;16.20;99.90;;;;;;5074073;28;20510;-71
2022/06/20 03:31:41;;;;;;;2.57;2.30;;;16.20;99.90;;;;;;5094031;28;20176;-71
2022/06/20 03:34:07;;;;;;;3.27;2.53;;;16.20;99.90;;;;;;5093973;28;20395;-71
2022/06/20 03:36:34;;;;;;;3.73;2.30;;;16.10;99.90;;;;;;5093847;28;20223;-71
2022/06/20 03:39:03;;;;;;;2.57;2.27;;;16.10;99.90;;;;;;5094154;28;20399;-71
2022/06/20 03:41:29;;;;;;;3.30;2.33;;;16.10;99.90;;;;;;5074120;28;20416;-71
2022/06/20 03:44:03;;;;;;;1.87;1.60;;;16.10;99.90;;;;;;5073630;28;20549;-71
2022/06/20 03:47:08;;;;;;;2.03;1.83;;;16.10;99.90;;;;;;5073468;28;20185;-71
2022/06/20 03:49:48;;;;;;;1.77;1.57;;;16.10;99.90;;;;;;5076952;28;20455;-72
2022/06/20 03:52:20;;;;;;;1.80;1.43;;;16.10;99.90;;;;;;5096273;28;20431;-72
2022/06/20 03:55:10;;;;;;;2.50;2.30;;;16.10;99.90;;;;;;5100375;28;20423;-72
2022/06/20 03:57:42;;;;;;;2.80;1.90;;;16.10;99.90;;;;;;5092878;28;20433;-71
2022/06/20 04:00:13;;;;;;;6.90;1.60;;;16.10;99.90;;;;;;5086319;28;20409;-71
2022/06/20 04:02:46;;;;;;;3.43;2.33;;;16.00;99.90;;;;;;5073533;28;20396;-71
2022/06/20 04:05:24;;;;;;;1.97;1.87;;;16.00;99.90;;;;;;5073138;28;20392;-71
2022/06/20 04:10:57;;;;;;;2.30;1.80;;;16.10;99.90;;;;;;5073119;28;20452;-72
2022/06/20 04:11:16;;;;;;;1.60;1.50;;;16.00;99.90;;;;;;5047975;28;20420;-72
2022/06/20 04:14:00;;;;;;;2.67;1.90;;;16.00;99.90;;;;;;5073297;28;20400;-72
2022/06/20 04:16:31;;;;;;;4.07;1.93;;;16.00;99.90;;;;;;5072920;28;20483;-72
2022/06/20 04:19:18;;;;;;;2.30;2.10;;;16.00;99.90;;;;;;5073133;28;20396;-72
2022/06/20 04:21:46;;;;;;;2.10;1.70;;;16.00;99.90;;;;;;5093012;28;20473;-72
2022/06/20 04:24:30;;;;;;;2.47;1.40;;;16.00;99.90;;;;;;5091756;28;20414;-72
2022/06/20 04:26:59;;;;;;;2.23;2.03;;;16.00;99.90;;;;;;5093093;28;20824;-72
2022/06/20 04:29:35;;;;;;;5.13;2.57;;;16.00;99.90;;;;;;5092580;28;20457;-71
2022/06/20 04:32:03;;;;;;;2.70;2.50;;;16.00;99.90;;;;;;5078573;28;20427;-72
2022/06/20 04:34:39;;;;;;;3.10;2.80;;;16.00;99.90;;;;;;5072971;28;20409;-71
2022/06/20 04:37:13;;;;;;;3.60;2.17;;;16.00;99.90;;;;;;5077354;28;20431;-71
2022/06/20 04:39:59;;;;;;;3.60;1.77;;;16.00;99.90;;;;;;5093300;28;20955;-72
2022/06/20 04:42:44;;;;;;;2.70;2.20;;;16.00;99.90;;;;;;5092944;28;20407;-71
2022/06/20 04:45:26;;;;;;;3.60;3.00;;;16.00;99.90;;;;;;5091247;28;20419;-71
2022/06/20 04:48:06;;;;;;;3.70;2.43;;;16.00;99.90;;;;;;5081172;28;20807;-71
2022/06/20 04:50:34;;;;;;;4.33;3.10;;;16.00;99.90;;;;;;5089028;28;20419;-71
2022/06/20 04:53:08;;;;;;;3.40;3.03;;;16.00;99.90;;;;;;5092552;28;20430;-70
2022/06/20 04:55:38;;;;;;;8.03;2.00;;;16.00;99.90;;;;;;5091383;28;20940;-72
2022/06/20 04:58:08;;;;;;;3.37;2.77;;;16.00;99.90;;;;;;5078620;28;20448;-71
2022/06/20 05:00:43;;;;;;;3.50;2.77;;;16.10;99.90;;;;;;5075325;28;20428;-71
2022/06/20 05:03:14;;;;;;;5.53;3.60;;;16.10;99.90;;;;;;5076540;28;20488;-71
2022/06/20 05:05:43;;;;;;;3.47;3.17;;;16.10;99.90;;;;;;5071984;28;20436;-72
2022/06/20 05:08:14;;;;;;;5.37;3.60;;;16.10;99.90;;;;;;5084600;28;20459;-73
2022/06/20 05:10:50;;;;;;;3.50;3.07;;;16.10;99.90;;;;;;5091973;28;20416;-72
2022/06/20 05:13:40;;;;;;;2.90;2.40;;;16.10;99.90;;;;;;5096693;28;20407;-70
2022/06/20 05:16:15;;;;;;;3.00;2.70;;;16.10;99.90;;;;;;5092073;28;20916;-71
2022/06/20 05:18:43;;;;;;;2.93;2.10;;;16.10;99.90;;;;;;5075094;28;20423;-70
2022/06/20 05:21:21;;;;;;;3.60;3.27;;;16.10;99.90;;;;;;5071908;28;20408;-71
2022/06/20 05:23:52;;;;;;;2.37;2.17;;;16.10;99.90;;;;;;5072035;28;20746;-70
2022/06/20 05:26:21;;;;;;;2.37;2.17;;;16.20;99.90;;;;;;5071638;28;20405;-71
2022/06/20 05:28:50;;;;;;;3.10;2.80;;;16.20;99.90;;;;;;5089203;28;20500;-73
2022/06/20 05:31:22;;;;;;;2.90;1.60;;;16.20;99.90;;;;;;5092149;28;20474;-72
2022/06/20 05:33:56;;;;;;;6.37;2.40;;;16.30;99.90;;;;;;5092163;28;20434;-72
2022/06/20 05:36:26;;;;;;;1.57;1.47;;;16.30;99.90;;;;;;5091703;28;20482;-72
2022/06/20 05:39:01;;;;;;;2.23;2.00;;;16.30;99.90;;;;;;5073974;28;20420;-72
2022/06/20 05:41:27;;;;;;;2.90;2.23;;;16.40;99.90;;;;;;5071822;28;20431;-71
2022/06/20 05:43:52;;;;;;;2.37;1.97;;;16.40;99.90;;;;;;5071803;28;20431;-71
2022/06/20 05:46:36;;;;;;;3.87;2.33;;;16.40;99.90;;;;;;5071373;28;20224;-71
2022/06/20 05:49:09;;;;;;;2.60;1.70;;;16.40;99.90;;;;;;5090443;28;20287;-71
2022/06/20 05:51:38;;;;;;;2.80;2.37;;;16.40;99.90;;;;;;5091845;28;20486;-72
2022/06/20 05:54:12;;;;;;;1.43;1.33;;;16.40;99.90;;;;;;5091754;28;20510;-71
2022/06/20 05:56:42;;;;;;;1.70;1.60;;;16.30;99.90;;;;;;5091634;28;20757;-72
2022/06/20 05:59:39;;;;;;;1.83;1.70;;;16.30;99.90;;;;;;5075957;28;20507;-72
2022/06/20 06:02:31;;;;;;;1.90;1.70;;;16.30;99.90;;;;;;5067265;28;20417;-71
2022/06/20 06:05:15;;;;;;;2.47;2.00;;;16.30;99.90;;;;;;5075382;28;20404;-71
2022/06/20 06:07:51;;;;;;;1.80;1.60;;;16.30;99.90;;;;;;5082704;28;20513;-71
2022/06/20 06:10:27;;;;;;;1.93;1.63;;;16.30;99.90;;;;;;5095939;28;20399;-71
2022/06/20 06:13:23;;;;;;;2.30;1.87;;;16.30;99.90;;;;;;5095840;28;20760;-72
2022/06/20 06:19:07;;;;;;;1.67;1.20;;;16.30;99.90;;;;;;5077455;28;20501;-71
2022/06/20 06:21:33;;;;;;;2.90;1.20;;;16.30;99.90;;;;;;5075369;28;20438;-71
2022/06/20 06:24:01;;;;;;;2.30;1.67;;;16.30;99.90;;;;;;5075277;28;20407;-71
2022/06/20 06:26:26;;;;;;;1.60;1.00;;;16.20;99.90;;;;;;5074976;28;20400;-71
2022/06/20 06:28:53;;;;;;;5.03;1.20;;;16.20;99.90;;;;;;5075342;28;20454;-71
2022/06/20 06:31:27;;;;;;;1.40;1.23;;;16.20;99.90;;;;;;5073841;28;20634;-71
2022/06/20 06:34:03;;;;;;;1.50;1.13;;;16.20;99.90;;;;;;5075146;28;20408;-71
2022/06/20 06:36:50;;;;;;;1.27;1.17;;;16.20;99.90;;;;;;5073386;28;20396;-72
2022/06/20 06:39:23;;;;;;;1.60;1.20;;;16.10;99.90;;;;;;5099804;28;20513;-73
2022/06/20 06:41:56;;;;;;;2.63;1.43;;;16.10;99.90;;;;;;5095728;28;20494;-72
2022/06/20 06:44:25;;;;;;;1.70;1.37;;;16.10;99.90;;;;;;5094850;28;20410;-71
2022/06/20 06:46:53;;;;;;;1.10;0.97;;;16.10;99.90;;;;;;5094964;28;20420;-72
2022/06/20 06:49:40;;;;;;;1.20;0.97;;;16.10;99.90;;;;;;5075028;28;20985;-72
2022/06/20 06:52:09;;;;;;;1.50;1.40;;;16.20;99.90;;;;;;5074710;28;20821;-72
2022/06/20 06:54:41;;;;;;;1.93;1.20;;;16.20;99.90;;;;;;5074266;28;20503;-71
2022/06/20 06:57:36;;;;;;;1.00;0.90;;;16.20;99.90;;;;;;5077483;28;20503;-72
2022/06/20 07:00:05;;;;;;;1.50;1.40;;;16.20;99.90;;;;;;5098934;28;20743;-71
2022/06/20 07:02:51;;;;;;;1.83;1.27;;;16.30;99.90;;;;;;5094759;28;20836;-71
2022/06/20 07:05:28;;;;;;;1.40;1.20;;;16.30;99.90;;;;;;5094530;28;20395;-72
2022/06/20 07:08:14;;;;;;;2.27;1.87;;;16.40;99.90;;;;;;5086905;28;20456;-72
2022/06/20 07:10:55;;;;;;;1.77;1.40;;;16.40;99.90;;;;;;5072504;28;20785;-72
2022/06/20 07:14:02;;;;;;;1.47;1.27;;;16.40;99.90;;;;;;5074433;28;20393;-71
2022/06/20 07:16:36;;;;;;;2.07;1.27;;;16.40;99.90;;;;;;5012991;28;20407;-71
2022/06/20 07:19:05;;;;;;;1.73;1.63;;;16.40;99.90;;;;;;5089530;28;20434;-71
2022/06/20 07:21:32;;;;;;;1.77;1.30;;;16.40;99.90;;;;;;5097863;28;20404;-72
2022/06/20 07:24:13;;;;;;;1.30;1.20;;;16.40;99.90;;;;;;5094458;28;20408;-72
2022/06/20 07:26:56;;;;;;;1.23;1.13;;;16.50;99.90;;;;;;5094354;28;21059;-72
2022/06/20 07:29:27;;;;;;;1.00;0.90;;;16.50;99.90;;;;;;5074811;28;21198;-72
2022/06/20 07:31:59;;;;;;;1.60;1.10;;;16.50;99.90;;;;;;5074098;28;20397;-72
2022/06/20 07:34:45;;;;;;;2.20;0.90;;;16.50;99.90;;;;;;5073760;28;20432;-71
2022/06/20 07:37:18;;;;;;;1.30;1.10;;;16.50;99.90;;;;;;5076383;28;20420;-72
2022/06/20 07:40:20;;;;;;;1.43;1.10;;;16.50;99.90;;;;;;5094904;28;20408;-72
2022/06/20 07:42:52;;;;;;;1.53;1.10;;;16.50;99.90;;;;;;5089977;28;20419;-72
2022/06/20 07:45:39;;;;;;;1.20;1.03;;;16.50;99.90;;;;;;5093739;28;20452;-72
2022/06/20 07:48:20;;;;;;;1.07;0.90;;;16.60;99.90;;;;;;5085233;28;20447;-72
2022/06/20 07:50:58;;;;;;;2.20;1.20;;;16.70;99.90;;;;;;5073760;28;20400;-72
2022/06/20 07:53:45;;;;;;;1.30;1.00;;;16.70;99.90;;;;;;5072401;28;20432;-72
2022/06/20 07:56:23;;;;;;;1.47;1.20;;;16.80;99.90;;;;;;5073248;28;20428;-72
2022/06/20 07:58:54;;;;;;;1.73;1.27;;;16.90;99.90;;;;;;5087581;28;20929;-72
2022/06/20 08:01:35;;;;;;;1.70;1.00;;;16.90;99.90;;;;;;5096826;28;20916;-72
2022/06/20 08:04:05;;;;;;;1.27;1.00;;;17.00;99.90;;;;;;5098468;28;20404;-73
2022/06/20 08:06:42;;;;;;;1.00;0.80;;;17.10;99.90;;;;;;5094984;28;20434;-72
2022/06/20 08:09:16;;;;;;;3.17;1.03;;;17.20;99.90;;;;;;5077321;28;20460;-72
2022/06/20 08:11:54;;;;;;;2.70;1.87;;;17.30;99.90;;;;;;5077709;28;20400;-73
2022/06/20 08:14:28;;;;;;;1.50;1.00;;;17.40;99.90;;;;;;5073594;28;20409;-71
2022/06/20 08:16:58;;;;;;;4.03;1.50;;;17.50;99.90;;;;;;5073013;28;20419;-72
2022/06/20 08:19:24;;;;;;;2.37;1.50;;;17.50;99.90;;;;;;5091625;28;20502;-72
2022/06/20 08:22:00;;;;;;;1.93;1.43;;;17.60;99.90;;;;;;5092417;28;20483;-71
2022/06/20 08:24:37;;;;;;;2.03;1.33;;;17.70;99.90;;;;;;5091790;28;20415;-71
2022/06/20 08:27:09;;;;;;;2.37;1.37;;;17.80;99.90;;;;;;5091748;28;20423;-71
2022/06/20 08:29:36;;;;;;;1.83;1.40;;;18.00;99.90;;;;;;5073998;28;20456;-73
2022/06/20 08:32:26;;;;;;;2.37;0.93;;;18.10;99.90;;;;;;5076537;28;20486;-72
2022/06/20 08:35:10;;;;;;;2.60;1.43;;;18.40;99.90;;;;;;5073864;28;21224;-71
2022/06/20 08:37:49;;;;;;;1.40;1.30;;;18.80;99.90;;;;;;5079409;28;20523;-73
2022/06/20 08:40:39;;;;;;;1.37;1.10;;;20.10;99.90;;;;;;5098786;28;20427;-72
2022/06/20 08:43:36;;;;;;;1.17;1.03;;;21.80;99.90;;;;;;5101818;28;20468;-72
2022/06/20 08:46:46;;;;;;;1.07;0.90;;;22.90;99.90;;;;;;5102583;28;20415;-73
2022/06/20 08:49:49;;;;;;;2.80;1.43;;;23.70;99.90;;;;;;5082533;28;20456;-73
2022/06/20 08:52:27;;;;;;;2.90;1.20;;;24.20;99.90;;;;;;5082995;28;20404;-73
2022/06/20 08:55:17;;;;;;;3.00;1.20;;;24.30;99.90;;;;;;5079920;28;20511;-72
2022/06/20 08:58:08;;;;;;;2.70;1.57;;;24.40;99.90;;;;;;5077520;28;20518;-70
2022/06/20 09:00:39;;;;;;;3.53;1.40;;;24.40;99.90;;;;;;5083799;28;20443;-70
2022/06/20 09:03:14;;;;;;;1.33;1.17;;;24.30;99.90;;;;;;5072455;28;20392;-71
2022/06/20 09:05:51;;;;;;;1.60;1.03;;;24.20;99.90;;;;;;5071970;28;20754;-70
2022/06/20 09:08:17;;;;;;;1.77;1.30;;;24.10;99.90;;;;;;5078601;28;20500;-70
2022/06/20 09:11:00;;;;;;;1.10;0.83;;;24.00;99.90;;;;;;5081285;28;20395;-71
2022/06/20 09:13:53;;;;;;;1.13;0.93;;;24.10;99.90;;;;;;5072233;28;20154;-71
2022/06/20 09:16:26;;;;;;;2.53;1.13;;;24.30;99.90;;;;;;5071780;28;20844;-71
2022/06/20 09:19:22;;;;;;;1.20;1.10;;;24.80;99.90;;;;;;5092333;28;21024;-70
2022/06/20 09:21:47;;;;;;;1.13;0.90;;;25.80;99.90;;;;;;5092310;28;20911;-70
2022/06/20 09:24:39;;;;;;;1.10;0.90;;;26.50;99.90;;;;;;5091991;28;20439;-70
2022/06/20 09:27:08;;;;;;;1.83;1.30;;;27.80;99.90;;;;;;5087077;28;20217;-68
2022/06/20 09:29:39;;;;;;;2.00;1.40;;;28.90;99.90;;;;;;5071878;28;20455;-68
2022/06/20 09:32:14;;;;;;;1.43;1.30;;;29.30;99.90;;;;;;5071907;28;20501;-69
2022/06/20 09:34:55;;;;;;;2.17;2.07;;;30.20;99.90;;;;;;5071754;28;20396;-69
2022/06/20 09:37:45;;;;;;;1.90;1.70;;;30.70;99.90;;;;;;5081240;28;20435;-69
2022/06/20 09:40:24;;;;;;;2.63;2.43;;;30.50;99.90;;;;;;5092059;28;20411;-68
2022/06/20 09:43:09;;;;;;;3.20;2.93;;;30.20;99.90;;;;;;5092168;28;20743;-69
2022/06/20 09:45:46;;;;;;;3.00;2.60;;;29.70;99.10;;;;;;5092045;28;20958;-69
2022/06/20 09:48:47;;;;;;;3.30;3.00;;;29.10;94.00;;;;;;5075179;28;20455;-68
2022/06/20 09:51:21;;;;;;;3.67;3.07;;;28.50;93.00;;;;;;5071703;28;20408;-69
2022/06/20 09:53:53;;;;;;;3.70;3.40;;;28.30;93.50;;;;;;5071738;28;21118;-69
2022/06/20 09:56:33;;;;;;;5.33;4.30;;;28.20;94.30;;;;;;5071473;28;20404;-68
2022/06/20 09:59:23;;;;;;;3.20;2.90;;;28.20;93.80;;;;;;5071784;28;20499;-69
2022/06/20 10:01:59;;;;;;;3.40;2.97;;;28.00;91.80;;;;;;5071866;28;20410;-70
2022/06/20 10:04:43;;;;;;;4.53;2.80;;;27.90;91.50;;;;;;5071484;28;20400;-69
2022/06/20 10:07:26;;;;;;;4.47;2.80;;;27.70;91.00;;;;;;5071825;28;20507;-69
2022/06/20 10:10:08;;;;;;;3.17;2.87;;;27.50;90.50;;;;;;5071789;28;20811;-69
2022/06/20 10:12:47;;;;;;;5.63;2.67;;;27.20;90.50;;;;;;5088742;28;20453;-69
2022/06/20 10:15:26;;;;;;;3.73;2.50;;;26.80;88.80;;;;;;5091627;28;20395;-70
2022/06/20 10:18:02;;;;;;;3.30;2.93;;;26.40;88.80;;;;;;5091904;28;20415;-70
2022/06/20 10:20:45;;;;;;;6.07;3.43;;;26.10;90.00;;;;;;5091953;28;20449;-70
2022/06/20 10:23:20;;;;;;;2.93;2.63;;;25.70;90.10;;;;;;5091471;28;20492;-70
2022/06/20 10:25:58;;;;;;;3.87;3.23;;;25.30;90.50;;;;;;5091660;28;20481;-70
2022/06/20 10:28:47;;;;;;;3.60;3.27;;;25.10;90.50;;;;;;5091681;28;20809;-70
2022/06/20 10:31:25;;;;;;;4.20;3.20;;;25.00;92.10;;;;;;5091864;28;20384;-69
2022/06/20 10:34:03;;;;;;;2.30;2.10;;;24.90;93.60;;;;;;5091709;28;20529;-69
2022/06/20 10:36:46;;;;;;;5.47;3.70;;;24.90;94.70;;;;;;5075477;28;20426;-70
2022/06/20 10:39:20;;;;;;;3.93;2.60;;;25.00;95.50;;;;;;5071512;28;20381;-69
2022/06/20 10:42:14;;;;;;;2.93;2.73;;;25.10;95.80;;;;;;5070854;28;20501;-70
2022/06/20 10:44:49;;;;;;;3.13;2.63;;;25.30;95.80;;;;;;5072175;28;20407;-70
2022/06/20 10:47:34;;;;;;;3.30;2.67;;;25.30;95.40;;;;;;5079975;28;20438;-70
2022/06/20 10:50:09;;;;;;;3.23;2.93;;;25.20;95.00;;;;;;5082395;28;20439;-69
2022/06/20 10:52:54;;;;;;;3.93;3.50;;;25.10;95.00;;;;;;5075065;28;20392;-69
2022/06/20 10:55:57;;;;;;;3.30;3.00;;;25.40;97.70;;;;;;5074520;28;20399;-70
2022/06/20 10:58:46;;;;;;;2.93;2.47;;;28.20;99.90;;;;;;5074257;28;20424;-70
2022/06/20 11:01:21;;;;;;;5.03;2.80;;;29.60;94.00;;;;;;5074814;28;20401;-70
2022/06/20 11:04:04;;;;;;;2.00;1.80;;;29.80;86.20;;;;;;5074656;28;20392;-70
2022/06/20 11:06:59;;;;;;;5.60;2.67;;;29.60;78.70;;;;;;5074285;28;20736;-70
2022/06/20 11:09:30;;;;;;;3.70;2.93;;;29.30;75.20;;;;;;5075017;28;20543;-70
2022/06/20 11:12:04;;;;;;;1.80;1.70;;;29.10;74.80;;;;;;5074501;28;20415;-70
2022/06/20 11:14:41;;;;;;;1.77;1.50;;;29.90;77.90;;;;;;5074214;28;20448;-70
2022/06/20 11:17:19;;;;;;;1.60;1.50;;;31.40;76.20;;;;;;5074375;28;20833;-70
2022/06/20 11:20:04;;;;;;;3.00;2.00;;;34.40;70.50;;;;;;5074532;28;20443;-70
2022/06/20 11:22:35;;;;;;;1.93;1.47;;;37.70;59.60;;;;;;5074637;28;20411;-68
2022/06/20 11:25:06;;;;;;;1.70;1.37;;;40.40;52.80;;;;;;5091323;28;20426;-69
2022/06/20 11:27:41;;;;;;;2.00;1.60;;;41.50;48.00;;;;;;5094583;28;20778;-68
2022/06/20 11:30:24;;;;;;;1.80;1.50;;;42.60;45.60;;;;;;5094778;28;20460;-68
2022/06/20 11:33:02;;;;;;;1.87;1.50;;;44.60;41.80;;;;;;5094913;28;20422;-69
2022/06/20 11:35:33;;;;;;;1.33;1.23;;;45.00;37.90;;;;;;5092917;28;20374;-69
2022/06/20 11:38:25;;;;;;;1.50;1.40;;;45.90;36.50;;;;;;5074163;28;20432;-68
2022/06/20 11:41:18;;;;;;;1.60;1.50;;;47.30;35.60;;;;;;5074031;28;20400;-68
2022/06/20 11:44:08;;;;;;;1.57;1.47;;;49.00;34.30;;;;;;5066201;28;20428;-69
2022/06/20 11:46:55;;;;;;;1.60;1.50;;;50.30;32.00;;;;;;5073729;28;20417;-69
2022/06/20 11:49:32;;;;;;;1.40;1.30;;;50.80;31.10;;;;;;5091056;28;20421;-69
2022/06/20 11:52:38;;;;;;;1.30;1.20;;;50.00;29.60;;;;;;5094091;28;20415;-68
2022/06/20 11:55:15;;;;;;;1.37;1.27;;;50.20;29.70;;;;;;5093471;28;20971;-70
2022/06/20 11:57:52;;;;;;;1.50;1.40;;;51.20;29.00;;;;;;5093733;28;20397;-71
2022/06/20 12:00:55;;;;;;;1.60;1.50;;;52.30;27.90;;;;;;5085709;28;20764;-70
2022/06/20 12:03:56;;;;;;;1.90;1.80;;;53.10;27.30;;;;;;5073405;28;20390;-70
2022/06/20 12:07:00;;;;;;;1.60;1.50;;;53.90;26.40;;;;;;5064618;28;20391;-73
2022/06/20 12:09:47;;;;;;;1.50;1.40;;;54.50;25.70;;;;;;5071310;28;20456;-72
2022/06/20 12:12:56;;;;;;;1.50;1.40;;;54.10;25.30;;;;;;5081638;28;20419;-73
2022/06/20 12:15:36;;;;;;;1.60;1.50;;;54.20;25.00;;;;;;5093064;28;20393;-72
2022/06/20 12:18:26;;;;;;;1.60;1.50;;;54.40;24.60;;;;;;5093332;28;20514;-73
2022/06/20 12:23:46;;;;;;;1.63;1.53;;;54.60;24.10;;;;;;5089863;28;20427;-72
2022/06/20 12:26:14;;;;;;;2.20;1.70;;;54.00;24.10;;;;;;5092338;28;20420;-72
2022/06/20 12:28:46;;;;;;;1.83;1.60;;;54.00;24.00;;;;;;5093285;28;20471;-72
2022/06/20 12:31:21;;;;;;;1.67;1.57;;;54.20;24.00;;;;;;5093244;28;20410;-72
2022/06/20 12:33:50;;;;;;;1.90;1.80;;;54.40;23.90;;;;;;5091892;28;20464;-71
2022/06/20 12:36:23;;;;;;;1.70;1.60;;;54.80;23.90;;;;;;5092720;28;20859;-72
2022/06/20 12:38:59;;;;;;;1.63;1.53;;;55.10;23.70;;;;;;5078702;28;20426;-73
2022/06/20 12:41:29;;;;;;;1.60;1.50;;;55.30;23.50;;;;;;5072801;28;20386;-72
2022/06/20 12:44:33;;;;;;;1.70;1.60;;;55.50;23.30;;;;;;5072690;28;20462;-73
2022/06/20 12:47:23;;;;;;;1.77;1.67;;;55.50;23.10;;;;;;5064134;28;20468;-72
2022/06/20 12:50:09;;;;;;;2.03;1.87;;;55.50;22.90;;;;;;5072520;28;20492;-72
2022/06/20 12:53:09;;;;;;;1.80;1.70;;;55.50;22.70;;;;;;5086529;28;20777;-73
2022/06/20 12:55:56;;;;;;;1.80;1.70;;;55.40;22.80;;;;;;5061060;28;20461;-72
2022/06/20 12:58:38;;;;;;;1.60;1.50;;;54.90;22.70;;;;;;5092656;28;20422;-73
2022/06/20 13:01:28;;;;;;;1.80;1.70;;;54.00;22.70;;;;;;5091323;28;20834;-73
2022/06/20 13:04:14;;;;;;;1.70;1.50;;;52.60;22.50;;;;;;5092683;28;20413;-72
2022/06/20 13:07:08;;;;;;;1.73;1.30;;;51.20;22.60;;;;;;5079399;28;20436;-71
2022/06/20 13:10:11;;;;;;;1.30;1.20;;;49.20;22.80;;;;;;5072213;28;21131;-72
2022/06/20 13:13:07;;;;;;;2.13;1.93;;;47.40;23.50;;;;;;5072335;28;20464;-71
2022/06/20 13:15:48;;;;;;;1.30;1.20;;;46.00;24.10;;;;;;5070540;28;20929;-71
2022/06/20 13:18:52;;;;;;;1.67;1.40;;;44.60;24.60;;;;;;5072266;28;20420;-71
2022/06/20 13:21:39;;;;;;;1.60;1.50;;;43.50;25.40;;;;;;5088912;28;20422;-71
2022/06/20 13:24:26;;;;;;;4.30;1.50;;;42.50;25.90;;;;;;5092274;28;20739;-71
2022/06/20 13:27:24;;;;;;;1.50;1.40;;;41.50;26.20;;;;;;5092142;28;20451;-71
2022/06/20 13:29:52;;;;;;;1.40;1.20;;;40.60;26.80;;;;;;5092092;28;20455;-70
2022/06/20 13:32:29;;;;;;;1.53;1.30;;;39.60;27.20;;;;;;5092060;28;20490;-72
2022/06/20 13:35:13;;;;;;;1.40;1.00;;;38.70;27.50;;;;;;5076756;28;20420;-71
2022/06/20 13:37:56;;;;;;;1.20;1.10;;;37.80;27.90;;;;;;5071869;28;20943;-71
2022/06/20 13:41:05;;;;;;;1.17;0.90;;;37.10;28.40;;;;;;5071936;28;20899;-71
2022/06/20 13:44:04;;;;;;;2.37;1.20;;;36.30;28.90;;;;;;5071870;28;20404;-73
2022/06/20 13:46:47;;;;;;;1.10;1.00;;;35.50;29.40;;;;;;5071503;28;20483;-73
2022/06/20 13:49:19;;;;;;;1.10;1.00;;;35.00;30.00;;;;;;5086241;28;20595;-74
2022/06/20 13:51:51;;;;;;;1.70;1.53;;;34.60;30.40;;;;;;5092015;28;20408;-74